Time;durP1;ratioP1;P1;durP2;ratioP2;P2;SDS_P1;SDS_P2;PMS_P1;PMS_P2;Temp;Humidity;BMP_temperature;BMP_pressure;BME280_temperature;BME280_humidity;BME280_pressure;Samples;Min_cycle;Max_cycle;Signal;HPM_P1;HPM_P2
2022/06/04 00:03:20;;;;;;;11.55;6.40;;;;;15.60;96400.00;;;;8427052;28;20718;-70
2022/06/04 00:07:25;;;;;;;11.88;6.53;;;;;15.60;96395.00;;;;8427322;28;20242;-71
2022/06/04 00:15:51;;;;;;;27.33;8.70;;;;;15.40;96383.00;;;;8426424;28;20294;-70
2022/06/04 00:19:54;;;;;;;13.63;7.55;;;;;15.50;96390.00;;;;8427560;28;20605;-71
2022/06/04 00:23:59;;;;;;;30.77;9.50;;;;;15.50;96407.00;;;;8426290;28;20254;-72
2022/06/04 00:28:05;;;;;;;12.70;8.00;;;;;15.50;96405.00;;;;8426799;28;20302;-71
2022/06/04 00:32:39;;;;;;;17.92;9.50;;;;;15.60;96422.00;;;;8426577;28;20301;-71
2022/06/04 00:36:42;;;;;;;17.65;8.38;;;;;15.80;96405.00;;;;8426208;28;20633;-71
2022/06/04 00:40:50;;;;;;;16.85;8.23;;;;;15.70;96402.00;;;;8426212;28;20250;-70
2022/06/04 00:45:42;;;;;;;23.63;9.20;;;;;15.70;96399.00;;;;8426914;28;20555;-70
2022/06/04 00:49:45;;;;;;;17.60;8.50;;;;;15.70;96397.00;;;;8299862;28;20233;-70
2022/06/04 00:53:48;;;;;;;328.52;16.27;;;;;15.60;96415.00;;;;8426544;28;20301;-70
2022/06/04 00:58:06;;;;;;;116.13;13.23;;;;;15.50;96399.00;;;;8427545;28;20269;-70
2022/06/04 01:02:34;;;;;;;35.10;11.88;;;;;15.60;96404.00;;;;8425771;28;20596;-70
2022/06/04 01:06:50;;;;;;;372.13;20.35;;;;;15.70;96396.00;;;;8425941;28;20225;-70
2022/06/04 01:11:00;;;;;;;482.67;24.27;;;;;15.80;96404.00;;;;8426813;28;20223;-70
2022/06/04 01:15:19;;;;;;;260.25;17.15;;;;;15.90;96414.00;;;;8428021;28;20251;-70
2022/06/04 01:19:42;;;;;;;187.52;18.45;;;;;16.10;96415.00;;;;8432403;28;20310;-70
2022/06/04 01:24:15;;;;;;;148.70;15.13;;;;;16.10;96419.00;;;;8433296;28;20222;-70
2022/06/04 01:28:57;;;;;;;244.77;17.08;;;;;16.30;96417.00;;;;8431879;28;20310;-69
2022/06/04 01:33:07;;;;;;;476.02;27.60;;;;;16.50;96415.00;;;;8431401;28;20588;-70
2022/06/04 01:37:15;;;;;;;360.70;21.13;;;;;16.60;96417.00;;;;8432269;28;20315;-70
2022/06/04 01:41:27;;;;;;;370.05;23.25;;;;;16.70;96415.00;;;;8432046;28;20235;-69
2022/06/04 01:45:34;;;;;;;184.07;14.23;;;;;16.70;96423.00;;;;8431717;28;20258;-69
2022/06/04 01:49:41;;;;;;;346.58;18.52;;;;;16.80;96424.00;;;;8431366;28;20242;-70
2022/06/04 01:53:47;;;;;;;367.90;18.38;;;;;16.80;96415.00;;;;8432122;28;20219;-70
2022/06/04 01:57:55;;;;;;;167.68;15.68;;;;;16.90;96412.00;;;;8431494;28;20235;-69
2022/06/04 02:02:04;;;;;;;165.63;13.40;;;;;16.90;96412.00;;;;8431923;28;20298;-69
2022/06/04 02:06:38;;;;;;;120.13;15.05;;;;;16.90;96407.00;;;;8430540;28;20229;-69
2022/06/04 02:10:45;;;;;;;152.65;14.45;;;;;16.90;96402.00;;;;8430465;28;20322;-68
2022/06/04 02:14:49;;;;;;;174.82;16.13;;;;;16.90;96397.00;;;;8430912;28;20310;-68
2022/06/04 02:19:24;;;;;;;99.60;11.63;;;;;16.80;96403.00;;;;8430101;28;20605;-68
2022/06/04 02:23:29;;;;;;;123.47;12.68;;;;;16.80;96400.00;;;;8429735;28;20219;-68
2022/06/04 02:27:32;;;;;;;76.15;10.75;;;;;16.80;96396.00;;;;8430706;28;20302;-68
2022/06/04 02:32:11;;;;;;;120.28;13.63;;;;;16.80;96383.00;;;;8430101;28;20219;-70
2022/06/04 02:36:24;;;;;;;157.57;12.88;;;;;16.80;96382.00;;;;8430055;28;20223;-69
2022/06/04 02:40:33;;;;;;;255.50;12.68;;;;;16.80;96378.00;;;;8430195;28;20215;-68
2022/06/04 02:44:45;;;;;;;176.95;14.80;;;;;16.80;96383.00;;;;8430384;28;20259;-70
2022/06/04 02:48:59;;;;;;;138.90;14.10;;;;;16.80;96383.00;;;;8429813;28;20225;-71
2022/06/04 02:53:05;;;;;;;165.95;14.88;;;;;16.80;96386.00;;;;8429019;28;20264;-71
2022/06/04 02:57:13;;;;;;;154.88;15.32;;;;;16.80;96380.00;;;;8429639;28;20223;-70
2022/06/04 03:01:17;;;;;;;146.05;14.52;;;;;16.80;96389.00;;;;8468887;22;20219;-70
2022/06/04 03:05:23;;;;;;;145.93;14.05;;;;;16.90;96384.00;;;;8427297;22;20258;-73
2022/06/04 03:09:28;;;;;;;254.85;18.08;;;;;16.90;96373.00;;;;8396160;28;20231;-73
2022/06/04 03:13:31;;;;;;;279.38;20.73;;;;;16.90;96384.00;;;;8397912;28;20238;-72
2022/06/04 03:17:34;;;;;;;162.43;16.67;;;;;17.00;96384.00;;;;8410481;28;20231;-72
2022/06/04 03:21:39;;;;;;;98.07;14.60;;;;;17.10;96384.00;;;;8396742;28;20223;-72
2022/06/04 03:25:44;;;;;;;219.30;16.52;;;;;17.10;96391.00;;;;8391633;28;20263;-70
2022/06/04 03:29:47;;;;;;;228.30;17.52;;;;;17.10;96391.00;;;;8393033;28;20314;-73
2022/06/04 03:33:50;;;;;;;136.43;14.82;;;;;17.00;96391.00;;;;8397491;28;20299;-72
2022/06/04 03:37:54;;;;;;;210.57;15.88;;;;;17.00;96394.00;;;;8396088;28;20760;-72
2022/06/04 03:42:01;;;;;;;256.88;16.92;;;;;17.00;96401.00;;;;8398135;28;20306;-71
2022/06/04 03:46:04;;;;;;;179.38;16.13;;;;;17.00;96387.00;;;;8392831;28;20254;-71
2022/06/04 03:50:10;;;;;;;300.70;20.20;;;;;17.10;96387.00;;;;8401899;28;20797;-71
2022/06/04 03:54:14;;;;;;;269.33;19.45;;;;;17.20;96384.00;;;;8390742;28;20389;-71
2022/06/04 03:58:18;;;;;;;271.50;19.50;;;;;17.30;96379.00;;;;8405401;28;20219;-72
2022/06/04 04:02:21;;;;;;;258.45;18.77;;;;;17.30;96389.00;;;;8392198;28;20289;-71
2022/06/04 04:06:27;;;;;;;151.32;17.25;;;;;17.40;96395.00;;;;8374670;28;20712;-70
2022/06/04 04:10:31;;;;;;;326.30;19.45;;;;;17.50;96392.00;;;;8370290;28;20230;-73
2022/06/04 04:14:36;;;;;;;301.15;20.08;;;;;17.50;96392.00;;;;8371757;28;20224;-73
2022/06/04 04:18:39;;;;;;;270.30;19.15;;;;;17.70;96397.00;;;;8374893;28;20226;-72
2022/06/04 04:22:43;;;;;;;166.18;17.23;;;;;17.70;96397.00;;;;8372960;28;20347;-73
2022/06/04 04:26:47;;;;;;;242.55;17.10;;;;;17.80;96399.00;;;;8375472;28;20306;-74
2022/06/04 04:30:51;;;;;;;258.38;18.98;;;;;17.80;96399.00;;;;8373912;28;20319;-74
2022/06/04 04:34:55;;;;;;;324.63;17.83;;;;;17.80;96392.00;;;;8367134;28;20220;-75
2022/06/04 04:38:58;;;;;;;201.90;17.67;;;;;17.90;96393.00;;;;8367560;28;20265;-72
2022/06/04 04:43:02;;;;;;;114.22;15.13;;;;;18.00;96393.00;;;;8375719;28;20222;-74
2022/06/04 04:47:07;;;;;;;240.73;17.73;;;;;18.00;96398.00;;;;8377085;28;20289;-73
2022/06/04 04:51:13;;;;;;;127.63;16.10;;;;;18.10;96399.00;;;;8376285;28;20318;-72
2022/06/04 04:55:16;;;;;;;94.03;14.68;;;;;18.20;96408.00;;;;8378087;28;20517;-71
2022/06/04 04:59:20;;;;;;;232.73;17.75;;;;;18.30;96407.00;;;;8370969;28;20304;-71
2022/06/04 05:03:24;;;;;;;113.63;12.90;;;;;18.40;96399.00;;;;8365895;28;20231;-69
2022/06/04 05:07:27;;;;;;;284.08;18.70;;;;;18.40;96401.00;;;;8376051;28;21139;-71
2022/06/04 05:11:33;;;;;;;278.38;21.23;;;;;18.60;96412.00;;;;8381257;28;20757;-72
2022/06/04 05:15:36;;;;;;;178.75;16.05;;;;;18.70;96400.00;;;;8386864;28;20314;-72
2022/06/04 05:19:41;;;;;;;257.05;19.60;;;;;18.80;96410.00;;;;8382064;28;20273;-71
2022/06/04 05:23:44;;;;;;;183.60;17.80;;;;;19.00;96405.00;;;;8381087;28;20318;-72
2022/06/04 05:27:47;;;;;;;290.25;21.35;;;;;19.20;96425.00;;;;8378947;28;20227;-71
2022/06/04 05:31:52;;;;;;;233.63;20.17;;;;;19.30;96418.00;;;;8382902;28;20761;-71
2022/06/04 05:35:56;;;;;;;294.92;24.00;;;;;19.30;96425.00;;;;8383628;28;20224;-72
2022/06/04 05:39:59;;;;;;;147.73;20.27;;;;;19.40;96428.00;;;;8385811;28;20306;-71
2022/06/04 05:44:04;;;;;;;127.72;20.17;;;;;19.50;96428.00;;;;8371508;28;20330;-74
2022/06/04 05:48:09;;;;;;;114.60;18.40;;;;;19.50;96445.00;;;;8381445;28;20234;-72
2022/06/04 05:52:13;;;;;;;101.80;17.80;;;;;19.50;96445.00;;;;8381842;28;20300;-71
2022/06/04 05:56:20;;;;;;;108.13;18.85;;;;;19.50;96449.00;;;;8379256;28;20314;-73
2022/06/04 06:00:24;;;;;;;106.05;19.63;;;;;19.80;96440.00;;;;8378285;28;20577;-72
2022/06/04 06:04:27;;;;;;;93.85;19.92;;;;;19.90;96439.00;;;;8377783;28;20235;-73
2022/06/04 06:08:32;;;;;;;68.70;18.70;;;;;20.20;96432.00;;;;8369679;28;20236;-72
2022/06/04 06:12:35;;;;;;;60.53;18.20;;;;;20.50;96449.00;;;;8368565;28;20224;-79
2022/06/04 06:16:41;;;;;;;44.45;17.90;;;;;20.80;96440.00;;;;8380683;28;20242;-75
2022/06/04 06:20:45;;;;;;;45.72;18.35;;;;;20.90;96441.00;;;;8382054;28;20398;-73
2022/06/04 06:24:49;;;;;;;42.72;17.27;;;;;20.90;96439.00;;;;8380032;28;20232;-77
2022/06/04 06:28:54;;;;;;;35.33;16.48;;;;;20.90;96447.00;;;;8371346;28;20247;-74
2022/06/04 06:32:58;;;;;;;30.83;16.17;;;;;21.00;96461.00;;;;8371790;28;20722;-78
2022/06/04 06:37:01;;;;;;;30.48;15.57;;;;;21.00;96471.00;;;;8373214;28;20879;-74
2022/06/04 06:41:07;;;;;;;26.63;14.68;;;;;21.30;96463.00;;;;8367027;28;20786;-72
2022/06/04 06:45:10;;;;;;;26.45;13.48;;;;;21.60;96468.00;;;;8375429;28;20225;-74
2022/06/04 06:49:17;;;;;;;21.92;12.85;;;;;21.80;96470.00;;;;8366350;28;20236;-73
2022/06/04 06:53:21;;;;;;;16.65;10.50;;;;;22.10;96478.00;;;;8378437;28;20252;-77
2022/06/04 06:57:25;;;;;;;18.27;11.27;;;;;22.30;96486.00;;;;8375584;28;20237;-74
2022/06/04 07:01:31;;;;;;;15.05;10.38;;;;;22.40;96486.00;;;;8372318;28;20227;-75
2022/06/04 07:05:34;;;;;;;14.60;10.30;;;;;22.50;96473.00;;;;8371824;28;20242;-77
2022/06/04 07:09:39;;;;;;;14.73;9.68;;;;;22.80;96494.00;;;;8377779;28;20223;-77
2022/06/04 07:13:44;;;;;;;14.95;9.95;;;;;23.20;96491.00;;;;8379994;28;20224;-73
2022/06/04 07:17:47;;;;;;;16.52;9.68;;;;;23.70;96494.00;;;;8374515;28;20224;-73
2022/06/04 07:21:51;;;;;;;12.90;8.77;;;;;24.20;96488.00;;;;8381900;28;20251;-75
2022/06/04 07:25:55;;;;;;;13.98;9.13;;;;;24.70;96502.00;;;;8380203;28;20326;-71
2022/06/04 07:30:00;;;;;;;12.52;9.60;;;;;24.80;96507.00;;;;8376511;28;20704;-75
2022/06/04 07:34:04;;;;;;;10.27;8.77;;;;;24.90;96505.00;;;;8365675;28;20223;-75
2022/06/04 07:38:07;;;;;;;12.82;9.40;;;;;25.00;96494.00;;;;8373721;28;20266;-72
2022/06/04 07:42:10;;;;;;;11.93;8.93;;;;;25.50;96515.00;;;;8362492;28;20310;-75
2022/06/04 07:46:16;;;;;;;11.80;8.65;;;;;26.00;96520.00;;;;8374392;28;20238;-73
2022/06/04 07:50:19;;;;;;;9.30;8.27;;;;;26.40;96525.00;;;;8371720;28;20640;-72
2022/06/04 07:54:23;;;;;;;12.38;8.70;;;;;26.80;96522.00;;;;8377809;28;20306;-76
2022/06/04 07:58:26;;;;;;;8.63;7.68;;;;;26.90;96538.00;;;;8380023;28;20259;-72
2022/06/04 08:02:31;;;;;;;10.05;8.27;;;;;27.90;96529.00;;;;8378182;28;20228;-75
2022/06/04 08:06:34;;;;;;;12.55;8.18;;;;;29.30;96536.00;;;;8377286;28;20684;-71
2022/06/04 08:10:37;;;;;;;9.13;7.28;;;;;30.70;96533.00;;;;8372606;28;20307;-75
2022/06/04 08:14:40;;;;;;;7.72;6.82;;;;;31.20;96536.00;;;;8367264;28;20231;-70
2022/06/04 08:18:45;;;;;;;8.68;7.18;;;;;31.70;96541.00;;;;8372944;28;20228;-72
2022/06/04 08:22:48;;;;;;;8.40;6.75;;;;;31.20;96543.00;;;;8375701;28;20220;-72
2022/06/04 08:26:58;;;;;;;7.70;6.75;;;;;31.10;96541.00;;;;8379268;28;20239;-73
2022/06/04 08:31:04;;;;;;;6.55;5.72;;;;;31.50;96547.00;;;;8378536;28;20277;-73
2022/06/04 08:35:09;;;;;;;7.47;5.60;;;;;32.10;96562.00;;;;8374893;28;20683;-76
2022/06/04 08:39:13;;;;;;;6.60;5.72;;;;;33.00;96559.00;;;;8367477;28;20224;-70
2022/06/04 08:43:25;;;;;;;6.20;5.15;;;;;32.60;96543.00;;;;8380090;28;20809;-73
2022/06/04 08:47:33;;;;;;;6.30;5.55;;;;;31.80;96541.00;;;;8369525;28;20236;-70
2022/06/04 08:51:38;;;;;;;6.22;5.63;;;;;31.60;96532.00;;;;8366886;28;20247;-74
2022/06/04 09:00:17;;;;;;;7.57;5.72;;;;;33.00;96542.00;;;;8372923;28;20228;-72
2022/06/04 09:04:42;;;;;;;8.05;6.10;;;;;33.70;96531.00;;;;8373057;28;20311;-77
2022/06/04 09:08:53;;;;;;;7.15;6.10;;;;;34.10;96535.00;;;;8371859;28;20307;-70
2022/06/04 09:13:00;;;;;;;8.25;6.13;;;;;32.80;96536.00;;;;8376779;28;20228;-69
2022/06/04 09:17:06;;;;;;;9.55;6.50;;;;;31.70;96532.00;;;;8362726;28;21283;-72
2022/06/04 09:21:11;;;;;;;7.55;6.20;;;;;31.80;96542.00;;;;8360227;28;20219;-70
2022/06/04 09:25:18;;;;;;;6.82;6.10;;;;;31.80;96543.00;;;;8377669;28;20226;-71
2022/06/04 09:29:36;;;;;;;6.38;4.80;;;;;31.50;96540.00;;;;8373293;28;20307;-73
2022/06/04 09:33:52;;;;;;;6.40;5.78;;;;;31.00;96535.00;;;;8370979;28;20228;-71
2022/06/04 09:37:56;;;;;;;5.75;5.22;;;;;30.80;96530.00;;;;8375571;28;20223;-75
2022/06/04 09:42:03;;;;;;;5.35;4.95;;;;;30.90;96534.00;;;;8369251;28;20226;-71
2022/06/04 09:46:08;;;;;;;5.68;5.18;;;;;31.30;96537.00;;;;8372109;28;20307;-75
2022/06/04 09:50:21;;;;;;;6.05;5.00;;;;;31.40;96530.00;;;;8383932;28;20573;-71
2022/06/04 09:54:28;;;;;;;5.22;4.72;;;;;31.50;96531.00;;;;8378812;28;20230;-71
2022/06/04 09:58:35;;;;;;;5.05;4.65;;;;;31.60;96527.00;;;;8364988;28;20307;-70
2022/06/04 10:02:38;;;;;;;5.55;5.00;;;;;31.40;96521.00;;;;8372468;28;20228;-72
2022/06/04 10:06:42;;;;;;;5.55;5.05;;;;;31.40;96508.00;;;;8377964;28;20264;-72
2022/06/04 10:10:45;;;;;;;5.05;4.30;;;;;30.60;96504.00;;;;8382309;28;20223;-72
2022/06/04 10:15:00;;;;;;;5.32;4.82;;;;;30.20;96494.00;;;;8376264;28;20223;-73
2022/06/04 10:19:15;;;;;;;7.90;5.72;;;;;30.30;96490.00;;;;8377375;28;20251;-72
2022/06/04 10:23:18;;;;;;;6.60;5.97;;;;;30.60;96496.00;;;;8382852;28;20720;-72
2022/06/04 10:27:42;;;;;;;7.28;5.40;;;;;30.90;96488.00;;;;8378597;28;20238;-74
2022/06/04 10:31:58;;;;;;;5.65;5.15;;;;;31.50;96480.00;;;;8379405;28;20227;-71
2022/06/04 10:36:18;;;;;;;5.63;5.10;;;;;31.90;96495.00;;;;8377511;28;20220;-72
2022/06/04 10:40:45;;;;;;;5.72;4.57;;;;;32.00;96489.00;;;;8355979;28;20224;-72
2022/06/04 10:45:16;;;;;;;6.97;4.50;;;;;32.00;96495.00;;;;8369772;28;20230;-71
2022/06/04 10:49:42;;;;;;;5.28;4.78;;;;;31.90;96490.00;;;;8369916;28;20237;-73
2022/06/04 10:53:59;;;;;;;5.15;4.75;;;;;31.70;96490.00;;;;8372336;28;20224;-70
2022/06/04 10:58:17;;;;;;;5.80;4.85;;;;;32.20;96500.00;;;;8373434;28;20231;-72
2022/06/04 11:02:25;;;;;;;5.20;4.53;;;;;32.80;96500.00;;;;8376607;28;20247;-71
2022/06/04 11:06:34;;;;;;;5.15;4.75;;;;;32.30;96502.00;;;;8375043;28;20250;-71
2022/06/04 11:10:40;;;;;;;8.93;5.40;;;;;31.80;96498.00;;;;8376732;28;20231;-70
2022/06/04 11:14:47;;;;;;;5.47;4.63;;;;;31.60;96504.00;;;;8370358;28;20223;-72
2022/06/04 11:18:56;;;;;;;5.20;4.80;;;;;31.40;96504.00;;;;8368049;28;20235;-73
2022/06/04 11:23:29;;;;;;;5.20;4.68;;;;;31.30;96499.00;;;;8371500;28;20342;-73
2022/06/04 11:27:37;;;;;;;5.57;5.03;;;;;32.40;96508.00;;;;8377760;28;20228;-71
2022/06/04 11:31:58;;;;;;;4.63;4.32;;;;;34.80;96509.00;;;;8382394;28;20226;-72
2022/06/04 11:36:08;;;;;;;6.38;5.63;;;;;36.30;96507.00;;;;8366029;28;20212;-72
2022/06/04 11:40:28;;;;;;;5.28;4.78;;;;;36.50;96509.00;;;;8379222;28;20227;-72
2022/06/04 11:45:19;;;;;;;5.38;4.78;;;;;35.60;96510.00;;;;8378940;28;20684;-72
2022/06/04 11:49:32;;;;;;;5.70;5.15;;;;;35.30;96511.00;;;;8360063;28;20269;-72
2022/06/04 11:53:46;;;;;;;9.75;5.03;;;;;34.80;96517.00;;;;8365831;28;20285;-74
2022/06/04 11:58:09;;;;;;;5.03;4.63;;;;;34.10;96520.00;;;;8373211;28;20307;-73
2022/06/04 12:02:21;;;;;;;7.88;5.10;;;;;33.80;96521.00;;;;8378953;28;20235;-72
2022/06/04 12:06:30;;;;;;;8.23;5.20;;;;;33.40;96518.00;;;;8377607;28;20220;-72
2022/06/04 12:10:47;;;;;;;5.03;4.53;;;;;33.60;96517.00;;;;8376578;28;20228;-72
2022/06/04 12:14:57;;;;;;;5.38;4.90;;;;;35.60;96506.00;;;;8378893;28;20287;-72
2022/06/04 12:19:05;;;;;;;7.07;4.90;;;;;37.20;96510.00;;;;8376664;28;20219;-72
2022/06/04 12:27:58;;;;;;;5.95;4.53;;;;;38.20;96507.00;;;;8373524;28;20224;-71
2022/06/04 12:32:06;;;;;;;5.57;4.70;;;;;38.90;96509.00;;;;8375424;28;20223;-72
2022/06/04 12:36:11;;;;;;;4.65;4.28;;;;;38.10;96507.00;;;;8376656;28;20231;-72
2022/06/04 12:40:30;;;;;;;5.05;3.80;;;;;38.10;96508.00;;;;8372252;28;20590;-72
2022/06/04 12:44:36;;;;;;;5.05;4.30;;;;;38.20;96497.00;;;;8376127;28;20238;-72
2022/06/04 12:48:55;;;;;;;5.55;4.55;;;;;38.00;96497.00;;;;8370401;28;20954;-72
2022/06/04 12:53:01;;;;;;;6.03;4.55;;;;;37.10;96500.00;;;;8377076;28;20328;-71
2022/06/04 12:57:16;;;;;;;7.18;4.57;;;;;36.30;96501.00;;;;8372912;28;20230;-72
2022/06/04 13:01:27;;;;;;;4.78;4.18;;;;;35.80;96489.00;;;;8372784;28;20227;-71
2022/06/04 13:05:32;;;;;;;4.55;4.15;;;;;36.00;96478.00;;;;8374113;28;20275;-70
2022/06/04 13:09:56;;;;;;;5.38;4.18;;;;;36.40;96471.00;;;;8371844;28;20250;-71
2022/06/04 13:14:07;;;;;;;5.05;4.28;;;;;36.80;96475.00;;;;8373761;28;20235;-71
2022/06/04 13:18:33;;;;;;;5.88;4.60;;;;;36.60;96490.00;;;;8373433;28;20228;-72
2022/06/04 13:22:44;;;;;;;5.75;4.47;;;;;36.60;96499.00;;;;8376734;28;20216;-72
2022/06/04 13:26:53;;;;;;;4.50;3.90;;;;;35.90;96503.00;;;;8381790;28;20222;-71
2022/06/04 13:30:56;;;;;;;4.63;4.10;;;;;35.20;96504.00;;;;8375766;28;20635;-71
2022/06/04 13:35:05;;;;;;;7.63;4.47;;;;;34.40;96510.00;;;;8382844;28;20259;-71
2022/06/04 13:39:27;;;;;;;6.38;4.15;;;;;33.70;96520.00;;;;8375319;28;20223;-71
2022/06/04 13:43:37;;;;;;;7.30;5.03;;;;;32.70;96523.00;;;;8379854;28;20250;-71
2022/06/04 13:47:52;;;;;;;5.22;4.68;;;;;31.70;96544.00;;;;8377854;28;20766;-71
2022/06/04 13:51:58;;;;;;;6.93;3.63;;;;;30.30;96561.00;;;;8372265;28;20238;-72
2022/06/04 13:56:08;;;;;;;5.28;3.13;;;;;28.20;96566.00;;;;8379913;28;20661;-70
2022/06/04 14:00:16;;;;;;;5.63;2.50;;;;;27.20;96537.00;;;;8377265;28;20246;-69
2022/06/04 14:08:50;;;;;;;6.97;1.90;;;;;28.20;96542.00;;;;8377833;28;20228;-69
2022/06/04 14:13:10;;;;;;;2.67;2.00;;;;;28.50;96555.00;;;;8374639;28;20215;-69
2022/06/04 14:17:28;;;;;;;2.83;1.80;;;;;28.20;96560.00;;;;8378926;28;20339;-69
2022/06/04 14:21:43;;;;;;;2.53;1.70;;;;;27.80;96563.00;;;;8376159;28;20211;-69
2022/06/04 14:25:54;;;;;;;2.50;1.65;;;;;27.70;96575.00;;;;8376377;28;20314;-71
2022/06/04 14:30:07;;;;;;;5.70;2.08;;;;;28.20;96569.00;;;;8371403;28;20230;-71
2022/06/04 14:34:12;;;;;;;2.38;2.25;;;;;27.70;96580.00;;;;8369356;28;20307;-72
2022/06/04 14:38:19;;;;;;;3.10;2.80;;;;;27.10;96576.00;;;;8372174;28;20237;-70
2022/06/04 14:42:46;;;;;;;4.03;3.72;;;;;27.30;96563.00;;;;8376838;28;20230;-71
2022/06/04 14:47:12;;;;;;;4.18;3.80;;;;;27.70;96565.00;;;;8379943;28;20683;-70
2022/06/04 14:51:39;;;;;;;5.53;3.78;;;;;28.10;96553.00;;;;8364237;28;20231;-70
2022/06/04 14:56:12;;;;;;;5.90;3.78;;;;;28.30;96552.00;;;;8365914;28;20216;-69
2022/06/04 15:00:24;;;;;;;4.88;4.15;;;;;28.70;96557.00;;;;8376643;28;20299;-70
2022/06/04 15:04:57;;;;;;;4.22;3.88;;;;;28.90;96555.00;;;;8368544;28;20673;-70
2022/06/04 15:09:17;;;;;;;4.72;4.30;;;;;28.90;96564.00;;;;8368809;28;20574;-70
2022/06/04 15:13:31;;;;;;;5.60;4.53;;;;;28.30;96565.00;;;;8374322;28;20815;-71
2022/06/04 15:17:50;;;;;;;5.60;4.90;;;;;27.80;96565.00;;;;8377462;28;20303;-70
2022/06/04 15:22:04;;;;;;;5.88;5.30;;;;;27.50;96563.00;;;;8370194;28;20224;-70
2022/06/04 15:26:13;;;;;;;6.57;5.30;;;;;27.50;96566.00;;;;8376688;28;20299;-70
2022/06/04 15:34:45;;;;;;;6.13;4.95;;;;;27.90;96561.00;;;;8378656;28;20251;-71
2022/06/04 15:38:56;;;;;;;8.35;5.30;;;;;28.20;96557.00;;;;8374596;28;20273;-70
2022/06/04 15:43:03;;;;;;;9.45;7.22;;;;;28.60;96554.00;;;;8377219;28;20311;-70
2022/06/04 15:47:12;;;;;;;7.65;5.93;;;;;28.40;96557.00;;;;8379195;28;20216;-69
2022/06/04 15:55:59;;;;;;;7.05;6.45;;;;;27.60;96561.00;;;;8377748;28;20227;-70
2022/06/04 16:00:14;;;;;;;10.95;8.85;;;;;27.70;96554.00;;;;8375495;28;20982;-67
2022/06/04 16:04:40;;;;;;;7.25;6.55;;;;;28.40;96547.00;;;;8374043;28;20232;-68
2022/06/04 16:08:49;;;;;;;10.23;7.53;;;;;29.10;96559.00;;;;8372613;28;20232;-69
2022/06/04 16:13:19;;;;;;;9.02;7.80;;;;;29.30;96561.00;;;;8376041;28;20254;-68
2022/06/04 16:17:29;;;;;;;8.45;6.07;;;;;29.30;96565.00;;;;8365457;28;20242;-69
2022/06/04 16:21:42;;;;;;;7.32;6.47;;;;;29.40;96568.00;;;;8375657;28;20232;-69
2022/06/04 16:25:52;;;;;;;7.32;6.35;;;;;29.30;96567.00;;;;8376674;28;20703;-69
2022/06/04 16:30:23;;;;;;;6.28;5.68;;;;;29.40;96571.00;;;;8377812;28;20234;-70
2022/06/04 16:34:55;;;;;;;6.07;5.10;;;;;29.00;96576.00;;;;8374453;28;21569;-69
2022/06/04 16:39:00;;;;;;;7.18;5.68;;;;;29.10;96570.00;;;;8374634;28;20323;-68
2022/06/04 16:43:07;;;;;;;6.10;5.60;;;;;29.10;96574.00;;;;8368266;28;20577;-68
2022/06/04 16:47:21;;;;;;;5.80;5.30;;;;;29.00;96561.00;;;;8369707;28;20286;-68
2022/06/04 16:51:24;;;;;;;10.10;7.18;;;;;29.40;96573.00;;;;8374839;28;20232;-68
2022/06/04 16:55:30;;;;;;;5.90;5.40;;;;;29.50;96569.00;;;;8386407;28;20318;-69
2022/06/04 16:59:33;;;;;;;5.35;4.95;;;;;29.80;96578.00;;;;8379564;28;20275;-69
2022/06/04 17:03:50;;;;;;;5.80;5.30;;;;;29.90;96568.00;;;;8382969;28;20240;-69
2022/06/04 17:08:08;;;;;;;7.53;5.53;;;;;29.90;96571.00;;;;8378891;28;20255;-69
2022/06/04 17:12:30;;;;;;;8.27;6.35;;;;;29.50;96571.00;;;;8384737;28;20227;-68
2022/06/04 17:16:41;;;;;;;6.90;6.20;;;;;29.60;96571.00;;;;8376205;28;20334;-70
2022/06/04 17:20:56;;;;;;;7.15;5.97;;;;;29.50;96578.00;;;;8361215;28;21080;-68
2022/06/04 17:25:23;;;;;;;6.85;5.63;;;;;29.50;96584.00;;;;8374085;28;20216;-69
2022/06/04 17:29:39;;;;;;;7.00;5.50;;;;;29.60;96585.00;;;;8371554;28;20317;-69
2022/06/04 17:33:54;;;;;;;7.13;5.40;;;;;29.60;96585.00;;;;8366375;28;20736;-68
2022/06/04 17:38:17;;;;;;;5.93;5.43;;;;;29.70;96588.00;;;;8367615;28;20235;-68
2022/06/04 17:42:22;;;;;;;7.43;5.70;;;;;29.80;96593.00;;;;8374638;28;20306;-68
2022/06/04 17:46:26;;;;;;;5.78;5.10;;;;;30.20;96603.00;;;;8367375;28;20668;-68
2022/06/04 17:50:30;;;;;;;6.22;5.53;;;;;30.30;96597.00;;;;8363304;28;20343;-69
2022/06/04 17:54:36;;;;;;;5.70;4.95;;;;;29.90;96595.00;;;;8364564;28;20220;-67
2022/06/04 17:58:54;;;;;;;5.80;5.25;;;;;28.80;96603.00;;;;8370644;28;20224;-68
2022/06/04 18:02:59;;;;;;;11.63;8.32;;;;;27.90;96602.00;;;;8379617;28;20252;-68
2022/06/04 18:07:02;;;;;;;9.07;7.43;;;;;27.10;96605.00;;;;8375634;28;20318;-68
2022/06/04 18:11:08;;;;;;;10.07;8.07;;;;;26.50;96597.00;;;;8370223;28;20219;-69
2022/06/04 18:15:11;;;;;;;7.45;5.95;;;;;26.10;96603.00;;;;8365362;28;20223;-70
2022/06/04 18:19:14;;;;;;;6.65;5.75;;;;;25.60;96600.00;;;;8366775;28;20718;-70
2022/06/04 18:23:19;;;;;;;7.80;5.97;;;;;25.20;96603.00;;;;8357718;28;20354;-70
2022/06/04 18:27:24;;;;;;;12.15;9.13;;;;;24.90;96609.00;;;;8361145;28;20318;-69
2022/06/04 18:31:27;;;;;;;8.77;6.13;;;;;24.70;96615.00;;;;8366820;28;20871;-69
2022/06/04 18:35:38;;;;;;;6.53;5.90;;;;;24.50;96620.00;;;;8379159;28;20224;-70
2022/06/04 18:39:43;;;;;;;8.35;6.60;;;;;24.30;96620.00;;;;8370932;28;20246;-69
2022/06/04 18:56:59;;;;;;;11.80;10.20;;;;;23.40;96635.00;;;;8369715;28;20243;-70
2022/06/04 19:01:04;;;;;;;11.65;8.65;;;;;23.20;96633.00;;;;8363045;28;20555;-70
2022/06/04 19:05:09;;;;;;;14.15;9.50;;;;;23.00;96645.00;;;;8370075;28;20247;-70
2022/06/04 19:09:29;;;;;;;13.43;9.32;;;;;22.80;96649.00;;;;8353213;28;20223;-70
2022/06/04 19:13:38;;;;;;;11.73;10.10;;;;;22.70;96645.00;;;;8361659;28;20236;-69
2022/06/04 19:17:43;;;;;;;12.65;9.65;;;;;22.50;96653.00;;;;8366292;28;20232;-70
2022/06/04 19:26:09;;;;;;;24.60;15.23;;;;;22.10;96656.00;;;;8371642;28;20318;-70
2022/06/04 19:30:13;;;;;;;27.70;18.90;;;;;22.00;96658.00;;;;8364653;28;20314;-71
2022/06/04 19:34:18;;;;;;;17.55;12.65;;;;;21.80;96669.00;;;;8367895;28;20226;-71
2022/06/04 19:38:21;;;;;;;17.70;11.50;;;;;21.60;96666.00;;;;8360708;28;20672;-70
2022/06/04 19:42:25;;;;;;;12.05;10.32;;;;;21.50;96677.00;;;;8362557;28;20722;-70
2022/06/04 19:46:29;;;;;;;12.32;10.23;;;;;21.40;96667.00;;;;8371720;28;20231;-69
2022/06/04 19:50:33;;;;;;;11.35;10.15;;;;;21.30;96665.00;;;;8367453;28;20232;-68
2022/06/04 19:58:58;;;;;;;12.82;10.05;;;;;21.10;96681.00;;;;8358591;28;20243;-70
2022/06/04 20:03:01;;;;;;;11.40;9.55;;;;;21.00;96682.00;;;;8366071;28;20247;-71
2022/06/04 20:07:09;;;;;;;12.48;10.73;;;;;20.80;96669.00;;;;8356049;28;20916;-70
2022/06/04 20:11:13;;;;;;;16.17;11.02;;;;;20.70;96671.00;;;;8363414;28;20231;-71
2022/06/04 20:15:18;;;;;;;12.15;10.48;;;;;20.60;96679.00;;;;8371321;28;20251;-72
2022/06/04 20:19:22;;;;;;;14.02;11.43;;;;;20.50;96675.00;;;;8374444;28;20311;-74
2022/06/04 20:23:26;;;;;;;14.32;12.18;;;;;20.40;96664.00;;;;8369884;28;20227;-73
2022/06/04 20:27:31;;;;;;;13.25;11.80;;;;;20.20;96666.00;;;;8369139;28;20628;-74
2022/06/04 20:31:34;;;;;;;18.70;12.52;;;;;20.10;96664.00;;;;8374829;28;20988;-72
2022/06/04 20:35:38;;;;;;;14.25;12.27;;;;;20.00;96653.00;;;;8376626;28;20223;-72
2022/06/04 20:39:43;;;;;;;20.38;13.43;;;;;19.80;96658.00;;;;8371443;28;20322;-73
2022/06/04 20:43:49;;;;;;;16.42;13.27;;;;;19.70;96672.00;;;;8376446;28;20238;-74
2022/06/04 20:47:59;;;;;;;22.13;15.32;;;;;19.70;96671.00;;;;8376331;28;20232;-73
2022/06/04 20:52:02;;;;;;;17.42;13.88;;;;;19.50;96668.00;;;;8372637;28;20980;-73
2022/06/04 20:56:10;;;;;;;17.35;13.95;;;;;19.40;96669.00;;;;8380130;28;20331;-74
2022/06/04 21:00:15;;;;;;;18.00;14.43;;;;;19.30;96663.00;;;;8375615;28;20691;-74
2022/06/04 21:04:19;;;;;;;18.42;13.85;;;;;19.10;96665.00;;;;8377150;28;20258;-75
2022/06/04 21:08:22;;;;;;;16.67;14.02;;;;;19.00;96661.00;;;;8375042;28;20241;-73
2022/06/04 21:12:27;;;;;;;18.95;12.80;;;;;19.00;96663.00;;;;8374655;28;20231;-75
2022/06/04 21:16:31;;;;;;;15.43;12.60;;;;;18.90;96643.00;;;;8379072;28;20232;-73
2022/06/04 21:20:34;;;;;;;14.27;11.98;;;;;18.80;96643.00;;;;8373480;28;20314;-71